createdAt,value
2018-09-05T00:00:35.484Z,74.83
2018-09-05T00:03:06.782Z,75.42
2018-09-05T00:05:37.564Z,75.14
2018-09-05T00:08:08.480Z,75.11
2018-09-05T00:10:39.565Z,74.98
2018-09-05T00:13:10.505Z,74.73
2018-09-05T00:15:41.531Z,75.05
2018-09-05T00:18:12.521Z,74.55
2018-09-05T00:20:43.514Z,75.24
2018-09-05T00:23:14.494Z,75.77
2018-09-05T00:25:45.494Z,75.61
2018-09-05T00:28:16.497Z,75.52
2018-09-05T00:30:47.509Z,75.42
2018-09-05T00:33:18.493Z,75.98
2018-09-05T00:35:49.474Z,76.25
2018-09-05T00:38:20.485Z,76.82
2018-09-05T00:40:51.477Z,76.54
2018-09-05T00:43:22.509Z,76.44
2018-09-05T00:45:53.457Z,75.90
2018-09-05T00:48:24.489Z,75.42
2018-09-05T00:50:55.486Z,76.24
2018-09-05T00:53:26.645Z,76.21
2018-09-05T00:55:57.529Z,75.57
2018-09-05T00:58:28.489Z,76.09
2018-09-05T01:00:59.532Z,76.19
2018-09-05T01:03:30.508Z,75.92
2018-09-05T01:06:01.484Z,76.60
2018-09-05T01:08:32.505Z,76.21
2018-09-05T01:11:03.498Z,75.88
2018-09-05T01:13:34.497Z,76.28
2018-09-05T01:16:05.642Z,76.68
2018-09-05T01:18:36.560Z,76.67
2018-09-05T01:21:07.577Z,76.64
2018-09-05T01:23:38.484Z,76.48
2018-09-05T01:26:09.451Z,76.80
2018-09-05T01:28:40.441Z,77.41
2018-09-05T01:31:11.485Z,76.83
2018-09-05T01:33:42.502Z,77.02
2018-09-05T01:36:17.668Z,77.53
2018-09-05T01:38:48.563Z,77.81
2018-09-05T01:41:19.541Z,77.87
2018-09-05T01:43:50.501Z,78.55
2018-09-05T01:46:21.491Z,79.05
2018-09-05T01:48:52.508Z,79.40
2018-09-05T01:51:23.485Z,79.69
2018-09-05T01:53:54.479Z,79.83
2018-09-05T01:56:25.456Z,79.66
2018-09-05T01:58:56.478Z,80.10
2018-09-05T02:01:27.473Z,80.12
2018-09-05T02:03:58.497Z,79.62
2018-09-05T02:06:29.464Z,79.44
2018-09-05T02:09:00.674Z,79.47
2018-09-05T02:11:31.497Z,80.02
2018-09-05T02:14:02.437Z,80.16
2018-09-05T02:16:33.473Z,80.26
2018-09-05T02:19:04.461Z,80.00
2018-09-05T02:21:35.520Z,79.71
2018-09-05T02:24:06.500Z,79.97
2018-09-05T02:26:37.508Z,79.77
2018-09-05T02:29:08.479Z,79.90
2018-09-05T02:31:39.410Z,80.01
2018-09-05T02:34:10.444Z,80.24
2018-09-05T02:36:41.438Z,80.02
2018-09-05T02:39:13.210Z,79.65
2018-09-05T02:41:44.345Z,79.51
2018-09-05T02:44:21.605Z,79.10
2018-09-05T02:46:53.286Z,79.94
2018-09-05T02:49:24.366Z,79.98
2018-09-05T02:51:55.430Z,79.52
2018-09-05T02:57:11.695Z,79.41
2018-09-05T02:59:42.583Z,79.32
2018-09-05T03:02:13.484Z,80.13
2018-09-05T03:04:44.461Z,79.77
2018-09-05T03:07:15.463Z,79.66
2018-09-05T03:09:46.485Z,79.45
2018-09-05T03:12:22.777Z,79.97
2018-09-05T03:14:53.818Z,79.87
2018-09-05T03:17:24.645Z,79.62
2018-09-05T03:19:55.496Z,80.16
2018-09-05T03:22:26.498Z,79.90
2018-09-05T03:24:57.519Z,79.61
2018-09-05T03:27:28.474Z,79.98
2018-09-05T03:29:59.650Z,79.65
2018-09-05T03:32:30.737Z,79.38
2018-09-05T03:35:01.460Z,79.98
2018-09-05T03:37:32.464Z,79.36
2018-09-05T03:40:03.695Z,79.53
2018-09-05T03:42:34.556Z,79.24
2018-09-05T03:45:05.521Z,79.67
2018-09-05T03:47:36.487Z,79.68
2018-09-05T03:50:09.018Z,79.85
2018-09-05T03:52:40.284Z,80.70
2018-09-05T03:55:11.364Z,81.49
2018-09-05T03:57:42.424Z,81.52
2018-09-05T04:00:13.521Z,81.66
2018-09-05T04:02:44.481Z,81.32
2018-09-05T04:05:15.506Z,81.70
2018-09-05T04:07:46.525Z,82.18
2018-09-05T04:10:17.583Z,81.97
2018-09-05T04:12:48.529Z,81.62
2018-09-05T04:15:19.568Z,81.79
2018-09-05T04:17:50.517Z,81.01
2018-09-05T04:20:21.534Z,81.80
2018-09-05T04:22:52.519Z,81.30
2018-09-05T04:25:23.526Z,81.06
2018-09-05T04:27:54.474Z,81.18
2018-09-05T04:30:25.556Z,81.85
2018-09-05T04:32:56.513Z,82.42
2018-09-05T04:35:27.518Z,82.84
2018-09-05T04:37:58.512Z,82.65
2018-09-05T04:40:29.515Z,83.04
2018-09-05T04:43:00.480Z,83.61
2018-09-05T04:45:31.531Z,83.44
2018-09-05T04:48:02.456Z,83.71
2018-09-05T04:50:33.525Z,83.33
2018-09-05T04:53:04.489Z,83.25
2018-09-05T04:55:35.449Z,83.34
2018-09-05T04:58:06.513Z,83.55
2018-09-05T05:00:37.477Z,83.32
2018-09-05T05:03:08.378Z,82.49
2018-09-05T05:05:39.565Z,81.98
2018-09-05T05:08:10.466Z,81.97
2018-09-05T05:10:41.678Z,82.35
2018-09-05T05:13:12.522Z,82.61
2018-09-05T05:15:43.509Z,82.27
2018-09-05T05:18:14.460Z,82.65
2018-09-05T05:20:45.450Z,82.49
2018-09-05T05:23:16.578Z,83.08
2018-09-05T05:25:47.569Z,82.47
2018-09-05T05:28:18.485Z,81.56
2018-09-05T05:30:49.495Z,81.82
2018-09-05T05:33:20.469Z,81.65
2018-09-05T05:35:51.461Z,81.48
2018-09-05T05:38:22.466Z,82.18
2018-09-05T05:40:53.485Z,81.82
2018-09-05T05:43:24.421Z,81.21
2018-09-05T05:45:55.513Z,81.74
2018-09-05T05:48:26.468Z,81.74
2018-09-05T05:50:57.487Z,81.36
2018-09-05T05:53:28.570Z,81.38
2018-09-05T05:55:59.497Z,81.71
2018-09-05T05:58:30.716Z,80.23
2018-09-05T06:01:01.691Z,80.84
2018-09-05T06:03:32.469Z,80.77
2018-09-05T06:06:03.504Z,79.89
2018-09-05T06:08:34.446Z,80.60
2018-09-05T06:11:05.754Z,80.21
2018-09-05T06:13:36.590Z,79.68
2018-09-05T06:16:07.529Z,80.12
2018-09-05T06:18:39.127Z,79.23
2018-09-05T06:21:10.463Z,79.92
2018-09-05T06:23:41.448Z,79.13
2018-09-05T06:26:12.480Z,80.24
2018-09-05T06:28:43.458Z,79.96
2018-09-05T06:31:14.614Z,79.29
2018-09-05T06:33:45.473Z,78.80
2018-09-05T06:36:16.489Z,78.00
2018-09-05T06:38:47.493Z,78.04
2018-09-05T06:41:18.548Z,77.49
2018-09-05T06:43:49.485Z,77.51
2018-09-05T06:46:20.464Z,76.55
2018-09-05T06:48:51.526Z,76.56
2018-09-05T06:51:22.529Z,76.25
2018-09-05T06:53:53.478Z,75.63
2018-09-05T06:56:24.502Z,75.41
2018-09-05T06:58:55.496Z,75.06
2018-09-05T07:01:26.460Z,73.87
2018-09-05T07:03:57.608Z,73.95
2018-09-05T07:06:28.481Z,73.56
2018-09-05T07:08:59.481Z,73.20
2018-09-05T07:11:30.483Z,71.99
2018-09-05T07:14:02.457Z,71.98
2018-09-05T07:16:33.458Z,71.34
2018-09-05T07:19:06.245Z,71.69
2018-09-05T07:21:37.681Z,71.83
2018-09-05T07:24:08.693Z,71.21
2018-09-05T07:26:39.586Z,70.75
2018-09-05T07:29:10.578Z,70.73
2018-09-05T07:31:41.553Z,70.64
2018-09-05T07:34:12.489Z,70.92
2018-09-05T07:36:43.482Z,69.22
2018-09-05T07:39:14.510Z,69.08
2018-09-05T07:41:45.450Z,69.57
2018-09-05T07:44:16.449Z,69.00
2018-09-05T07:46:47.468Z,68.84
2018-09-05T07:49:18.444Z,68.88
2018-09-05T07:51:49.570Z,68.08
2018-09-05T07:54:20.565Z,67.01
2018-09-05T07:56:51.501Z,66.72
2018-09-05T07:59:22.478Z,67.83
2018-09-05T08:01:53.497Z,67.16
2018-09-05T08:04:24.458Z,66.37
2018-09-05T08:06:55.476Z,66.68
2018-09-05T08:09:26.494Z,66.04
2018-09-05T08:11:57.489Z,64.34
2018-09-05T08:14:28.462Z,63.53
2018-09-05T08:16:59.449Z,63.80
2018-09-05T08:19:30.457Z,63.92
2018-09-05T08:22:01.406Z,62.36
2018-09-05T08:24:32.513Z,62.30
2018-09-05T08:27:03.515Z,62.86
2018-09-05T08:29:34.466Z,61.66
2018-09-05T08:32:05.472Z,61.40
2018-09-05T08:34:36.486Z,60.14
2018-09-05T08:37:07.665Z,58.31
2018-09-05T08:39:38.474Z,59.06
2018-09-05T08:42:09.517Z,55.83
2018-09-05T08:44:40.544Z,55.13
2018-09-05T08:47:11.526Z,54.99
2018-09-05T08:49:42.461Z,55.50
2018-09-05T08:52:13.518Z,55.93
2018-09-05T08:54:44.470Z,54.10
2018-09-05T08:57:15.491Z,52.96
2018-09-05T08:59:46.484Z,53.02
2018-09-05T09:02:17.522Z,51.14
2018-09-05T09:04:48.484Z,51.37
2018-09-05T09:07:19.629Z,50.44
2018-09-05T09:09:50.520Z,50.18
2018-09-05T09:12:21.543Z,48.66
2018-09-05T09:14:52.478Z,49.97
2018-09-05T09:17:23.464Z,47.50
2018-09-05T09:19:54.485Z,47.35
2018-09-05T09:22:25.490Z,47.00
2018-09-05T09:24:56.497Z,46.17
2018-09-05T09:27:27.489Z,47.33
2018-09-05T09:29:58.477Z,45.33
2018-09-05T09:32:29.505Z,43.35
2018-09-05T09:35:00.433Z,44.46
2018-09-05T09:37:31.465Z,44.46
2018-09-05T09:40:02.464Z,46.04
2018-09-05T09:42:33.497Z,43.44
2018-09-05T09:45:04.489Z,43.86
2018-09-05T09:47:35.465Z,43.93
2018-09-05T09:50:07.746Z,44.27
2018-09-05T09:52:39.017Z,46.42
2018-09-05T09:55:10.290Z,45.14
2018-09-05T09:57:41.387Z,44.88
2018-09-05T10:00:12.606Z,44.36
2018-09-05T10:02:48.544Z,44.75
2018-09-05T10:06:27.341Z,45.53
2018-09-05T10:09:03.444Z,44.47
2018-09-05T10:11:39.596Z,45.66
2018-09-05T10:14:16.451Z,45.28
2018-09-05T10:16:52.646Z,45.73
2018-09-05T10:19:23.545Z,45.07
2018-09-05T10:21:55.468Z,45.08
2018-09-05T10:24:26.485Z,44.05
2018-09-05T10:26:57.465Z,44.69
2018-09-05T10:29:28.463Z,44.74
2018-09-05T10:31:59.499Z,43.70
2018-09-05T10:34:30.495Z,42.80
2018-09-05T10:37:01.497Z,43.29
2018-09-05T10:39:32.570Z,42.63
2018-09-05T10:42:03.506Z,41.65
2018-09-05T10:44:34.497Z,40.45
2018-09-05T10:47:05.553Z,41.44
2018-09-05T10:49:36.502Z,40.75
2018-09-05T10:52:08.675Z,39.67
2018-09-05T10:54:39.497Z,38.75
2018-09-05T10:57:10.497Z,38.18
2018-09-05T11:02:24.498Z,34.96
2018-09-05T11:04:55.491Z,34.14
2018-09-05T11:07:26.537Z,33.49
2018-09-05T11:09:57.486Z,34.79
2018-09-05T11:12:28.513Z,33.39
2018-09-05T11:14:59.517Z,33.58
2018-09-05T11:17:30.505Z,34.24
2018-09-05T11:20:01.546Z,32.21
2018-09-05T11:22:32.521Z,32.94
2018-09-05T11:25:03.509Z,32.67
2018-09-05T11:27:34.610Z,31.96
2018-09-05T11:30:05.667Z,30.76
2018-09-05T11:32:36.602Z,31.86
2018-09-05T11:35:07.690Z,30.83
2018-09-05T11:37:38.561Z,32.14
2018-09-05T11:40:10.405Z,31.00
2018-09-05T11:42:41.507Z,31.22
2018-09-05T11:45:12.516Z,31.54
2018-09-05T11:47:43.602Z,31.59
2018-09-05T11:50:14.579Z,31.50
2018-09-05T11:52:45.625Z,30.04
2018-09-05T11:55:16.594Z,28.64
2018-09-05T11:57:47.649Z,29.01
2018-09-05T12:00:18.561Z,29.53
2018-09-05T12:02:49.521Z,27.92
2018-09-05T12:05:20.579Z,26.66
2018-09-05T12:07:51.567Z,28.70
2018-09-05T12:10:22.544Z,29.58
2018-09-05T12:12:54.018Z,28.98
2018-09-05T12:15:25.573Z,28.43
2018-09-05T12:17:56.496Z,28.58
2018-09-05T12:20:27.539Z,27.06
2018-09-05T12:22:58.536Z,25.26
2018-09-05T12:25:29.599Z,25.84
2018-09-05T12:28:00.721Z,25.83
2018-09-05T12:30:31.617Z,24.81
2018-09-05T12:33:02.560Z,23.49
2018-09-05T12:35:33.527Z,25.49
2018-09-05T12:38:04.591Z,25.98
2018-09-05T12:40:35.586Z,25.92
2018-09-05T12:43:06.700Z,27.24
2018-09-05T12:45:37.615Z,27.31
2018-09-05T12:48:09.551Z,26.44
2018-09-05T12:50:40.522Z,25.82
2018-09-05T12:53:11.578Z,25.13
2018-09-05T12:55:42.583Z,26.12
2018-09-05T12:58:13.630Z,25.27
2018-09-05T13:00:44.780Z,25.09
2018-09-05T13:03:15.925Z,26.75
2018-09-05T13:05:47.309Z,25.01
2018-09-05T13:08:18.406Z,25.07
2018-09-05T13:10:49.572Z,24.29
2018-09-05T13:13:20.602Z,26.10
2018-09-05T13:15:51.590Z,26.13
2018-09-05T13:18:22.494Z,24.55
2018-09-05T13:20:53.562Z,24.67
2018-09-05T13:23:24.759Z,25.91
2018-09-05T13:25:57.485Z,26.12
2018-09-05T13:28:31.565Z,26.29
2018-09-05T13:31:03.245Z,24.85
2018-09-05T13:33:35.611Z,24.85
2018-09-05T13:36:06.925Z,24.26
2018-09-05T13:38:38.453Z,25.17
2018-09-05T13:41:09.694Z,24.90
2018-09-05T13:43:40.595Z,24.98
2018-09-05T13:46:12.514Z,26.43
2018-09-05T13:48:43.566Z,25.42
2018-09-05T13:51:14.592Z,24.60
2018-09-05T13:53:45.607Z,23.97
2018-09-05T13:56:16.600Z,24.48
2018-09-05T13:58:48.034Z,24.64
2018-09-05T14:01:19.450Z,23.87
2018-09-05T14:03:50.818Z,25.01
2018-09-05T14:06:21.704Z,25.74
2018-09-05T14:08:52.734Z,24.68
2018-09-05T14:11:23.718Z,23.61
2018-09-05T14:13:55.721Z,23.03
2018-09-05T14:16:26.718Z,24.14
2018-09-05T14:18:57.770Z,22.60
2018-09-05T14:21:29.184Z,22.38
2018-09-05T14:24:00.557Z,23.88
2018-09-05T14:26:31.658Z,24.16
2018-09-05T14:29:02.550Z,24.95
2018-09-05T14:31:35.046Z,24.42
2018-09-05T14:34:06.393Z,24.02
2018-09-05T14:36:37.589Z,24.49
2018-09-05T14:39:13.797Z,24.80
2018-09-05T14:41:44.591Z,25.85
2018-09-05T14:44:15.490Z,25.42
2018-09-05T14:46:46.470Z,25.17
2018-09-05T14:49:18.294Z,25.71
2018-09-05T14:51:51.466Z,25.51
2018-09-05T14:54:22.585Z,26.43
2018-09-05T14:56:53.485Z,26.22
2018-09-05T14:59:24.469Z,27.53
2018-09-05T15:01:55.505Z,26.85
2018-09-05T15:04:26.519Z,26.72
2018-09-05T15:06:57.580Z,26.99
2018-09-05T15:09:28.453Z,27.32
2018-09-05T15:11:59.574Z,27.50
2018-09-05T15:14:30.475Z,26.94
2018-09-05T15:17:02.374Z,27.77
2018-09-05T15:33:17.318Z,29.41
2018-09-05T15:35:52.735Z,29.16
2018-09-05T15:38:25.378Z,29.48
2018-09-05T15:41:01.376Z,29.37
2018-09-05T15:57:18.291Z,29.20
2018-09-05T15:59:57.477Z,29.17
2018-09-05T16:02:49.807Z,29.80
2018-09-05T16:05:20.561Z,29.16
2018-09-05T16:08:01.444Z,29.66
2018-09-05T16:10:52.308Z,29.73
2018-09-05T16:13:28.780Z,29.77
2018-09-05T16:16:19.068Z,29.39
2018-09-05T16:26:59.843Z,30.83
2018-09-05T16:29:31.432Z,29.93
2018-09-05T16:32:19.866Z,30.38
2018-09-05T16:35:00.227Z,30.11
2018-09-05T16:37:32.428Z,31.04
2018-09-05T16:40:26.893Z,30.35
2018-09-05T16:43:01.621Z,30.06
2018-09-05T16:45:41.324Z,29.50
2018-09-05T16:48:20.863Z,29.53
2018-09-05T16:51:26.730Z,30.51
2018-09-05T16:53:57.554Z,29.97
2018-09-05T16:59:42.900Z,30.23
2018-09-05T17:02:45.009Z,30.77
2018-09-05T17:05:28.934Z,31.39
2018-09-05T17:08:07.438Z,31.18
2018-09-05T17:10:56.554Z,31.71
2018-09-05T17:13:34.416Z,31.37
2018-09-05T17:19:01.833Z,31.87
2018-09-05T17:21:53.838Z,33.60
2018-09-05T17:24:39.724Z,33.03
2018-09-05T17:27:18.583Z,32.61
2018-09-05T17:29:50.224Z,34.71
2018-09-05T17:32:22.290Z,32.81
2018-09-05T17:35:00.849Z,33.98
2018-09-05T17:37:35.127Z,38.56
2018-09-05T17:40:13.209Z,36.72
2018-09-05T17:42:44.395Z,34.76
2018-09-05T17:45:28.773Z,33.31
2018-09-05T17:50:53.235Z,34.09
2018-09-05T17:53:28.936Z,34.07
2018-09-05T17:56:03.411Z,34.27
2018-09-05T17:58:34.640Z,35.13
2018-09-05T18:01:06.652Z,35.83
2018-09-05T18:03:37.589Z,34.88
2018-09-05T18:06:09.291Z,34.74
2018-09-05T18:08:41.444Z,35.77
2018-09-05T18:11:13.094Z,35.14
2018-09-05T18:13:45.506Z,36.01
2018-09-05T18:16:16.510Z,35.81
2018-09-05T18:18:47.658Z,37.81
2018-09-05T18:21:18.642Z,35.64
2018-09-05T18:23:49.549Z,34.61
2018-09-05T18:26:22.733Z,34.89
2018-09-05T18:28:54.183Z,35.83
2018-09-05T18:31:25.466Z,35.77
2018-09-05T18:33:56.485Z,36.39
2018-09-05T18:36:27.486Z,36.32
2018-09-05T18:38:58.453Z,36.76
2018-09-05T18:42:01.405Z,38.41
2018-09-05T18:44:32.593Z,36.29
2018-09-05T18:47:03.510Z,35.99
2018-09-05T18:49:34.437Z,36.59
2018-09-05T18:52:05.453Z,37.14
2018-09-05T18:54:36.432Z,37.90
2018-09-05T18:57:07.469Z,37.84
2018-09-05T18:59:38.424Z,39.32
2018-09-05T19:02:09.453Z,39.73
2018-09-05T19:04:40.460Z,39.59
2018-09-05T19:07:11.746Z,39.80
2018-09-05T19:09:42.685Z,40.05
2018-09-05T19:12:13.843Z,40.70
2018-09-05T19:14:44.711Z,40.49
2018-09-05T19:17:15.648Z,40.67
2018-09-05T19:19:48.186Z,40.31
2018-09-05T19:22:19.458Z,41.07
2018-09-05T19:24:50.552Z,41.82
2018-09-05T19:27:21.497Z,41.69
2018-09-05T19:29:52.539Z,41.33
2018-09-05T19:32:23.522Z,42.72
2018-09-05T19:35:03.624Z,40.83
2018-09-05T19:37:48.998Z,41.43
2018-09-05T19:40:20.288Z,41.72
2018-09-05T19:42:50.397Z,41.81
2018-09-05T19:45:21.510Z,42.52
2018-09-05T19:47:53.464Z,41.45
2018-09-05T19:50:24.618Z,42.02
2018-09-05T19:52:55.770Z,42.09
2018-09-05T19:55:26.643Z,41.83
2018-09-05T19:57:57.674Z,42.20
2018-09-05T20:00:28.541Z,42.67
2018-09-05T20:03:05.163Z,42.05
2018-09-05T20:05:37.455Z,42.06
2018-09-05T20:08:08.658Z,42.79
2018-09-05T20:10:41.617Z,42.74
2018-09-05T20:13:13.094Z,43.23
2018-09-05T20:15:44.393Z,43.92
2018-09-05T20:18:15.626Z,43.42
2018-09-05T20:20:46.545Z,43.40
2018-09-05T20:23:17.514Z,43.13
2018-09-05T20:25:48.485Z,44.49
2018-09-05T20:28:25.007Z,44.15
2018-09-05T20:30:58.660Z,43.83
2018-09-05T20:36:54.462Z,44.77
2018-09-05T20:53:00.526Z,45.29
2018-09-05T20:55:31.564Z,45.49
2018-09-05T20:58:02.680Z,44.96
2018-09-05T21:00:33.549Z,45.91
2018-09-05T21:03:06.278Z,44.92
2018-09-05T21:05:36.425Z,46.07
2018-09-05T21:08:07.698Z,46.13
2018-09-05T21:10:38.544Z,45.68
2018-09-05T21:13:09.473Z,45.90
2018-09-05T21:15:40.489Z,45.57
2018-09-05T21:18:11.646Z,46.26
2018-09-05T21:20:42.502Z,46.07
2018-09-05T21:23:13.441Z,46.16
2018-09-05T21:25:44.483Z,46.65
2018-09-05T21:28:15.597Z,46.75
2018-09-05T21:30:46.521Z,46.67
2018-09-05T21:33:17.813Z,46.92
2018-09-05T21:35:48.605Z,47.82
2018-09-05T21:38:19.568Z,47.50
2018-09-05T21:40:50.464Z,47.71
2018-09-05T21:43:21.434Z,47.52
2018-09-05T21:45:52.445Z,47.76
2018-09-05T21:48:23.516Z,47.37
2018-09-05T21:50:54.397Z,47.20
2018-09-05T21:53:25.449Z,48.21
2018-09-05T21:55:56.416Z,47.94
2018-09-05T21:58:27.469Z,47.96
2018-09-05T22:00:58.512Z,49.21
2018-09-05T22:03:29.421Z,49.31
2018-09-05T22:06:00.432Z,49.03
2018-09-05T22:08:31.468Z,49.01
2018-09-05T22:11:07.446Z,49.59
2018-09-05T22:13:38.665Z,49.70
2018-09-05T22:16:09.545Z,49.94
2018-09-05T22:18:40.508Z,49.17
2018-09-05T22:21:11.454Z,49.54
2018-09-05T22:23:42.445Z,50.39
2018-09-05T22:26:13.513Z,49.84
2018-09-05T22:28:44.472Z,49.84
2018-09-05T22:31:15.451Z,49.33
2018-09-05T22:33:46.466Z,49.99
2018-09-05T22:36:17.498Z,50.45
2018-09-05T22:38:48.519Z,49.84
2018-09-05T22:41:19.497Z,50.76
2018-09-05T22:44:13.449Z,49.94
2018-09-05T22:47:07.419Z,51.26
2018-09-05T22:52:15.439Z,51.08
2018-09-05T22:55:43.290Z,51.57
2018-09-05T22:58:44.441Z,51.16
2018-09-05T23:01:36.406Z,51.65
2018-09-05T23:06:55.220Z,52.06
2018-09-05T23:09:49.289Z,53.29
2018-09-05T23:12:43.255Z,53.46
2018-09-05T23:15:30.429Z,53.19
2018-09-05T23:19:34.450Z,54.67
2018-09-05T23:22:05.492Z,56.07
2018-09-05T23:24:36.447Z,56.11
2018-09-05T23:27:07.469Z,56.61
2018-09-05T23:29:38.488Z,57.23
2018-09-05T23:32:09.459Z,56.51
2018-09-05T23:34:40.458Z,56.93
2018-09-05T23:37:11.445Z,56.29
2018-09-05T23:39:42.485Z,57.36
2018-09-05T23:42:13.490Z,57.84
2018-09-05T23:44:44.554Z,57.04
2018-09-05T23:47:15.538Z,56.71
2018-09-05T23:49:46.497Z,56.92
2018-09-05T23:52:17.463Z,56.94
2018-09-05T23:54:48.493Z,56.76
2018-09-05T23:57:19.504Z,56.08
2018-09-05T23:59:50.478Z,56.72
